KBAM/BAM METAR and TAF weather

Enter ICAO airport designator
Station Type Date Time Source
KBAM METAR 2019/06/17 06:35 UTC NOAA

KBAM 170635Z AUTO 00000KT 10SM SCT120 18/07 A2998 RMK AO1


Station Type Date Time Source
KBAM Decoded METAR 2019/06/17 06:35 UTC NOAA

Station name not available
Jun 17, 2019 - 02:35 AM EDT / 2019.06.17 0635 UTC
Wind: Calm:0
Visibility: 10 mile(s):0
Sky conditions: partly cloudy
Temperature: 64 F (18 C)
Dew Point: 44 F (7 C)
Relative Humidity: 48%
Pressure (altimeter): 29.98 in. Hg (1015 hPa)
ob: KBAM 170635Z AUTO 00000KT 10SM SCT120 18/07 A2998 RMK AO1
cycle: 6

Station Type Date Time Source
KBAM TAF 2019/06/17 06:22 UTC NOAA

TAF KBAM 170520Z 1706/1806 VRB03KT P6SM SCT150 SCT250
FM172000 36013G23KT P6SM BKN120
FM180300 03008KT P6SM SCT120

Example: see airport list